Time;durP1;ratioP1;P1;durP2;ratioP2;P2;SDS_P1;SDS_P2;PMS_P1;PMS_P2;Temp;Humidity;BMP_temperature;BMP_pressure;BME280_temperature;BME280_humidity;BME280_pressure;Samples;Min_cycle;Max_cycle;Signal;HPM_P1;HPM_P2
2022/10/11 00:00:05;;;;;;;11.90;6.23;;;10.20;99.90;;;;;;5115540;28;20218;-73
2022/10/11 00:02:32;;;;;;;9.23;6.00;;;10.10;99.90;;;;;;5115513;28;20200;-73
2022/10/11 00:04:58;;;;;;;9.77;5.83;;;10.20;99.90;;;;;;5116271;28;20541;-72
2022/10/11 00:07:25;;;;;;;9.87;5.80;;;10.10;99.90;;;;;;5116614;28;20561;-72
2022/10/11 00:09:52;;;;;;;8.93;5.87;;;10.10;99.90;;;;;;5113730;28;20218;-73
2022/10/11 00:12:20;;;;;;;11.37;5.37;;;10.10;99.90;;;;;;5111762;28;20220;-72
2022/10/11 00:14:47;;;;;;;11.80;6.30;;;10.10;99.90;;;;;;5114865;28;20200;-72
2022/10/11 00:17:14;;;;;;;11.30;5.70;;;10.10;99.90;;;;;;5115783;28;20224;-72
2022/10/11 00:19:41;;;;;;;13.47;6.57;;;10.00;99.90;;;;;;5114637;28;20199;-72
2022/10/11 00:22:08;;;;;;;12.50;6.67;;;10.00;99.90;;;;;;5113221;28;20220;-72
2022/10/11 00:24:35;;;;;;;9.77;6.30;;;10.00;99.90;;;;;;5116497;28;20679;-72
2022/10/11 00:27:01;;;;;;;9.40;6.20;;;9.90;99.90;;;;;;5113372;28;20242;-72
2022/10/11 00:29:29;;;;;;;10.90;6.30;;;9.90;99.90;;;;;;5113312;28;20219;-72
2022/10/11 00:31:56;;;;;;;9.00;6.00;;;9.90;99.90;;;;;;5107049;28;20200;-72
2022/10/11 00:34:23;;;;;;;11.30;6.30;;;9.90;99.90;;;;;;5116887;28;20200;-73
2022/10/11 00:36:50;;;;;;;10.73;6.50;;;9.80;99.90;;;;;;5111215;28;20224;-73
2022/10/11 00:39:17;;;;;;;10.07;6.33;;;9.80;99.90;;;;;;5114572;28;20212;-71
2022/10/11 00:41:44;;;;;;;10.60;6.30;;;9.80;99.90;;;;;;5116951;28;20196;-72
2022/10/11 00:44:13;;;;;;;9.30;6.00;;;9.80;99.90;;;;;;5112532;28;20211;-71
2022/10/11 00:46:44;;;;;;;8.60;5.67;;;9.80;99.90;;;;;;5115483;28;20214;-71
2022/10/11 00:49:20;;;;;;;10.03;6.57;;;9.70;99.90;;;;;;5113168;28;20206;-71
2022/10/11 00:51:52;;;;;;;13.00;6.47;;;9.70;99.90;;;;;;5113751;28;20203;-71
2022/10/11 00:54:25;;;;;;;12.40;6.37;;;9.70;99.90;;;;;;5114904;28;20212;-73
2022/10/11 00:56:56;;;;;;;11.57;6.33;;;9.70;99.90;;;;;;5115526;28;20562;-72
2022/10/11 00:59:27;;;;;;;12.93;6.13;;;9.70;99.90;;;;;;5111500;27;20699;-73
2022/10/11 01:01:56;;;;;;;12.83;6.40;;;9.70;99.90;;;;;;5114081;28;20196;-71
2022/10/11 01:04:23;;;;;;;9.20;5.80;;;9.70;99.90;;;;;;5113296;28;20196;-71
2022/10/11 01:06:50;;;;;;;8.97;5.30;;;9.60;99.90;;;;;;5116327;28;20215;-71
2022/10/11 01:09:19;;;;;;;10.53;6.70;;;9.60;99.90;;;;;;5113436;28;20200;-71
2022/10/11 01:11:48;;;;;;;9.97;5.87;;;9.60;99.90;;;;;;5114499;28;20597;-72
2022/10/11 01:14:38;;;;;;;9.70;6.30;;;9.50;99.90;;;;;;5113427;27;20219;-71
2022/10/11 01:17:16;;;;;;;11.20;6.80;;;9.50;99.90;;;;;;5112894;28;20212;-71
2022/10/11 01:20:02;;;;;;;10.53;6.23;;;9.50;99.90;;;;;;5114018;28;20204;-72
2022/10/11 01:23:01;;;;;;;10.53;6.43;;;9.50;99.90;;;;;;5109344;28;20220;-71
2022/10/11 01:25:34;;;;;;;9.40;6.20;;;9.50;99.90;;;;;;5114455;28;20239;-73
2022/10/11 01:28:27;;;;;;;9.27;6.23;;;9.50;99.90;;;;;;5108202;28;20207;-71
2022/10/11 01:31:01;;;;;;;8.40;6.47;;;9.50;99.90;;;;;;5104505;28;20838;-71
2022/10/11 01:33:34;;;;;;;9.70;6.07;;;9.50;99.90;;;;;;5111241;28;20199;-71
2022/10/11 01:36:10;;;;;;;10.63;6.50;;;9.50;99.90;;;;;;5115352;28;20298;-71
2022/10/11 01:38:42;;;;;;;11.27;7.10;;;9.50;99.90;;;;;;5111440;28;20202;-72
2022/10/11 01:41:13;;;;;;;11.93;6.77;;;9.50;99.90;;;;;;5112588;28;20223;-71
2022/10/11 01:43:41;;;;;;;13.97;6.63;;;9.50;99.90;;;;;;5114445;28;20222;-72
2022/10/11 01:46:10;;;;;;;11.00;5.87;;;9.60;99.90;;;;;;5113509;28;20659;-71
2022/10/11 01:48:47;;;;;;;11.07;6.40;;;9.60;99.90;;;;;;5112083;28;20212;-71
2022/10/11 01:51:15;;;;;;;11.87;6.60;;;9.60;99.90;;;;;;5110830;28;20214;-71
2022/10/11 01:54:07;;;;;;;12.83;6.33;;;9.60;99.90;;;;;;5110304;28;20210;-72
2022/10/11 01:56:56;;;;;;;14.03;6.20;;;9.60;99.90;;;;;;5108766;28;20916;-72
2022/10/11 01:59:39;;;;;;;16.37;7.17;;;9.60;99.90;;;;;;5112507;28;20556;-71
2022/10/11 02:02:18;;;;;;;9.90;6.17;;;9.60;99.90;;;;;;5105843;28;20210;-72
2022/10/11 02:04:49;;;;;;;11.67;6.20;;;9.50;99.90;;;;;;5111187;28;20215;-71
2022/10/11 02:07:22;;;;;;;9.60;6.30;;;9.60;99.90;;;;;;5102647;28;20193;-70
2022/10/11 02:09:55;;;;;;;9.73;6.63;;;9.60;99.90;;;;;;5107974;28;20571;-71
2022/10/11 02:12:27;;;;;;;8.70;6.57;;;9.60;99.90;;;;;;5114215;28;20199;-71
2022/10/11 02:14:57;;;;;;;10.60;6.37;;;9.60;99.90;;;;;;5113341;28;20196;-71
2022/10/11 02:17:31;;;;;;;9.23;6.10;;;9.60;99.90;;;;;;5107452;28;20238;-71
2022/10/11 02:20:01;;;;;;;11.80;6.70;;;9.60;99.90;;;;;;5102025;28;20200;-71
2022/10/11 02:22:31;;;;;;;10.97;6.83;;;9.70;99.90;;;;;;5111716;28;20231;-71
2022/10/11 02:25:00;;;;;;;11.53;7.00;;;9.70;99.90;;;;;;5112271;28;20226;-70
2022/10/11 02:27:30;;;;;;;10.27;6.20;;;9.70;99.90;;;;;;5102682;28;20656;-72
2022/10/11 02:30:01;;;;;;;10.93;6.70;;;9.80;99.90;;;;;;5111765;28;20207;-71
2022/10/11 02:32:32;;;;;;;12.33;6.43;;;9.70;99.90;;;;;;5111023;28;20910;-71
2022/10/11 02:35:01;;;;;;;10.93;6.63;;;9.70;99.90;;;;;;5110456;28;20196;-71
2022/10/11 02:37:31;;;;;;;10.80;6.40;;;9.80;99.90;;;;;;5111887;28;20223;-71
2022/10/11 02:40:04;;;;;;;12.47;6.40;;;9.80;99.90;;;;;;5109957;28;20213;-71
2022/10/11 02:42:36;;;;;;;13.83;6.37;;;9.80;99.90;;;;;;5111136;28;20219;-71
2022/10/11 02:45:07;;;;;;;8.77;6.23;;;9.80;99.90;;;;;;5112604;28;20211;-72
2022/10/11 02:47:36;;;;;;;11.50;6.40;;;9.80;99.90;;;;;;5111322;28;20272;-72
2022/10/11 02:50:04;;;;;;;9.43;6.20;;;9.80;99.90;;;;;;5110738;27;20218;-72
2022/10/11 02:52:31;;;;;;;11.23;6.63;;;9.80;99.90;;;;;;5116303;28;20208;-72
2022/10/11 02:54:57;;;;;;;10.03;6.70;;;9.90;99.90;;;;;;5115162;28;20644;-72
2022/10/11 02:57:24;;;;;;;9.83;6.83;;;9.90;99.90;;;;;;5111581;27;20231;-73
2022/10/11 02:59:51;;;;;;;11.10;6.97;;;9.90;99.90;;;;;;5115661;28;20214;-72
2022/10/11 03:02:18;;;;;;;10.60;7.37;;;9.90;99.90;;;;;;5116951;28;20652;-73
2022/10/11 03:04:46;;;;;;;11.80;7.40;;;9.90;99.90;;;;;;5115226;28;20214;-71
2022/10/11 03:07:13;;;;;;;10.37;6.50;;;9.90;99.90;;;;;;5115657;28;20215;-73
2022/10/11 03:09:40;;;;;;;10.17;7.13;;;9.90;99.90;;;;;;5115355;28;20626;-71
2022/10/11 03:12:07;;;;;;;16.17;7.17;;;9.90;99.90;;;;;;5114854;28;20204;-72
2022/10/11 03:14:34;;;;;;;12.40;7.03;;;9.90;99.90;;;;;;5115617;28;20211;-72
2022/10/11 03:17:01;;;;;;;12.93;7.23;;;10.00;99.90;;;;;;5115146;28;20233;-72
2022/10/11 03:19:27;;;;;;;13.83;6.73;;;10.00;99.90;;;;;;5114784;28;20600;-71
2022/10/11 03:21:56;;;;;;;12.93;7.10;;;10.00;99.90;;;;;;5115753;28;20214;-71
2022/10/11 03:24:22;;;;;;;10.37;7.10;;;10.00;99.90;;;;;;5114374;28;20207;-71
2022/10/11 03:26:49;;;;;;;8.93;6.63;;;10.00;99.90;;;;;;5115139;28;20219;-71
2022/10/11 03:29:16;;;;;;;10.40;6.90;;;10.10;99.90;;;;;;5113084;28;20219;-71
2022/10/11 03:31:43;;;;;;;9.37;6.43;;;10.10;99.90;;;;;;5112074;28;20200;-70
2022/10/11 03:34:09;;;;;;;10.87;7.17;;;10.10;99.90;;;;;;5113468;28;20208;-71
2022/10/11 03:36:36;;;;;;;12.23;7.17;;;10.10;99.90;;;;;;5114582;28;20663;-71
2022/10/11 03:39:05;;;;;;;13.17;7.33;;;10.10;99.90;;;;;;5113399;28;20223;-71
2022/10/11 03:41:32;;;;;;;10.47;7.37;;;10.10;99.90;;;;;;5115038;27;20212;-72
2022/10/11 03:43:59;;;;;;;12.33;7.20;;;10.10;99.90;;;;;;5114051;28;20211;-71
2022/10/11 03:46:25;;;;;;;13.07;7.20;;;10.20;99.90;;;;;;5112309;28;20203;-72
2022/10/11 03:48:52;;;;;;;14.77;7.53;;;10.20;99.90;;;;;;5115797;28;20195;-72
2022/10/11 03:51:19;;;;;;;13.10;7.50;;;10.20;99.90;;;;;;5108068;27;20218;-71
2022/10/11 03:53:46;;;;;;;12.13;7.53;;;10.20;99.90;;;;;;5115134;28;20564;-71
2022/10/11 03:56:14;;;;;;;10.17;7.33;;;10.30;99.90;;;;;;5109540;28;20211;-72
2022/10/11 03:58:41;;;;;;;13.67;8.17;;;10.20;99.90;;;;;;5113834;28;20228;-73
2022/10/11 04:01:07;;;;;;;14.77;7.80;;;10.30;99.90;;;;;;5112645;28;20211;-71
2022/10/11 04:03:34;;;;;;;12.27;7.70;;;10.30;99.90;;;;;;5111782;28;20215;-71
2022/10/11 04:06:03;;;;;;;10.67;7.43;;;10.30;99.90;;;;;;5113830;28;20207;-72
2022/10/11 04:08:29;;;;;;;10.10;7.67;;;10.40;99.90;;;;;;5114126;28;20200;-71
2022/10/11 04:10:57;;;;;;;11.47;7.53;;;10.40;99.90;;;;;;5114681;28;20200;-71
2022/10/11 04:13:25;;;;;;;11.70;8.47;;;10.40;99.90;;;;;;5111157;28;20195;-71
2022/10/11 04:15:52;;;;;;;14.57;8.33;;;10.40;99.90;;;;;;5112368;28;20196;-72
2022/10/11 04:18:19;;;;;;;10.53;7.77;;;10.40;99.90;;;;;;5115212;28;20216;-71
2022/10/11 04:20:45;;;;;;;14.13;8.83;;;10.40;99.90;;;;;;5114722;28;20222;-72
2022/10/11 04:23:12;;;;;;;13.60;7.93;;;10.40;99.90;;;;;;5113982;27;20608;-72
2022/10/11 04:25:40;;;;;;;11.70;8.10;;;10.40;99.90;;;;;;5113482;28;20239;-74
2022/10/11 04:28:08;;;;;;;19.60;8.43;;;10.50;99.90;;;;;;5114788;28;20200;-72
2022/10/11 04:30:36;;;;;;;12.80;8.70;;;10.40;99.90;;;;;;5115253;28;20208;-71
2022/10/11 04:33:03;;;;;;;13.90;8.80;;;10.40;99.90;;;;;;5110876;27;20292;-72
2022/10/11 04:35:30;;;;;;;13.30;8.90;;;10.50;99.90;;;;;;5093097;28;20196;-71
2022/10/11 04:37:57;;;;;;;14.20;8.83;;;10.50;99.90;;;;;;5114078;28;20223;-72
2022/10/11 04:40:23;;;;;;;13.80;8.27;;;10.40;99.90;;;;;;5113171;28;20208;-71
2022/10/11 04:42:52;;;;;;;13.73;8.90;;;10.50;99.90;;;;;;5103111;28;20206;-70
2022/10/11 04:45:19;;;;;;;14.50;8.70;;;10.50;99.90;;;;;;5101912;28;20204;-69
2022/10/11 04:47:47;;;;;;;14.77;8.33;;;10.50;99.90;;;;;;5103798;28;20312;-70
2022/10/11 04:50:14;;;;;;;15.73;9.03;;;10.50;99.90;;;;;;5106159;28;20588;-70
2022/10/11 04:52:41;;;;;;;15.43;9.07;;;10.50;99.90;;;;;;5110362;28;20200;-68
2022/10/11 04:55:09;;;;;;;10.33;8.23;;;10.50;99.90;;;;;;5110181;28;20638;-68
2022/10/11 04:57:35;;;;;;;14.07;8.73;;;10.50;99.90;;;;;;5102961;28;20223;-67
2022/10/11 05:00:03;;;;;;;11.37;8.53;;;10.50;99.90;;;;;;5106053;28;20903;-69
2022/10/11 05:02:29;;;;;;;10.63;8.23;;;10.40;99.90;;;;;;5103582;28;20207;-68
2022/10/11 05:04:58;;;;;;;17.93;9.70;;;10.40;99.90;;;;;;5106431;28;20211;-66
2022/10/11 05:07:25;;;;;;;16.80;9.67;;;10.40;99.90;;;;;;5104228;28;20233;-69
2022/10/11 05:09:51;;;;;;;13.90;9.13;;;10.40;99.90;;;;;;5103356;28;20200;-70
2022/10/11 05:12:18;;;;;;;16.03;9.93;;;10.40;99.90;;;;;;5110583;28;20208;-68
2022/10/11 05:14:45;;;;;;;15.27;8.90;;;10.40;99.90;;;;;;5107796;28;20200;-68
2022/10/11 05:17:12;;;;;;;15.20;9.60;;;10.40;99.90;;;;;;5104539;28;20224;-69
2022/10/11 05:19:39;;;;;;;14.97;8.83;;;10.40;99.90;;;;;;5111399;28;20224;-70
2022/10/11 05:22:07;;;;;;;12.33;9.20;;;10.40;99.90;;;;;;5107547;28;20223;-73
2022/10/11 05:24:34;;;;;;;15.60;10.83;;;10.40;99.90;;;;;;5102715;28;20195;-69
2022/10/11 05:27:00;;;;;;;14.87;9.83;;;10.40;99.90;;;;;;5109459;28;20235;-71
2022/10/11 05:29:27;;;;;;;12.23;9.27;;;10.40;99.90;;;;;;5111666;28;20295;-70
2022/10/11 05:31:54;;;;;;;12.93;9.20;;;10.40;99.90;;;;;;5104004;28;20208;-69
2022/10/11 05:34:21;;;;;;;14.13;9.90;;;10.40;99.90;;;;;;5107085;28;20652;-69
2022/10/11 05:36:47;;;;;;;18.10;11.90;;;10.40;99.90;;;;;;5107160;28;20204;-69
2022/10/11 05:39:15;;;;;;;16.83;10.83;;;10.40;99.90;;;;;;5110670;28;20302;-70
2022/10/11 05:41:42;;;;;;;15.37;10.23;;;10.50;99.90;;;;;;5111091;28;20204;-69
2022/10/11 05:44:09;;;;;;;16.83;11.60;;;10.50;99.90;;;;;;5110098;28;20200;-69
2022/10/11 05:46:36;;;;;;;16.17;10.57;;;10.50;99.90;;;;;;5108140;28;20204;-67
2022/10/11 05:49:03;;;;;;;17.33;10.30;;;10.50;99.90;;;;;;5106677;28;20306;-67
2022/10/11 05:51:29;;;;;;;20.07;10.57;;;10.60;99.90;;;;;;5108828;28;20649;-67
2022/10/11 05:53:56;;;;;;;17.73;10.50;;;10.60;99.90;;;;;;5105322;28;20652;-67
2022/10/11 05:56:26;;;;;;;19.23;11.70;;;10.60;99.90;;;;;;5109318;28;20211;-69
2022/10/11 05:58:53;;;;;;;13.27;10.97;;;10.60;99.90;;;;;;5108199;28;20222;-68
2022/10/11 06:01:22;;;;;;;12.80;10.10;;;10.70;99.90;;;;;;5110021;28;20207;-68
2022/10/11 06:03:49;;;;;;;13.97;10.10;;;10.70;99.90;;;;;;5108837;28;20589;-68
2022/10/11 06:06:16;;;;;;;16.30;11.17;;;10.80;99.90;;;;;;5109744;28;20259;-68
2022/10/11 06:08:44;;;;;;;18.47;10.97;;;10.90;99.90;;;;;;5109163;28;20204;-68
2022/10/11 06:11:13;;;;;;;15.80;11.03;;;11.10;99.90;;;;;;5110424;28;20204;-68
2022/10/11 06:13:41;;;;;;;17.87;12.57;;;11.10;99.90;;;;;;5110055;28;20228;-67
2022/10/11 06:16:09;;;;;;;17.23;11.47;;;11.20;99.90;;;;;;5110214;28;20204;-68
2022/10/11 06:18:35;;;;;;;16.30;11.00;;;11.40;99.90;;;;;;5110064;28;20223;-68
2022/10/11 06:21:02;;;;;;;15.20;10.63;;;11.50;99.90;;;;;;5109920;28;20211;-68
2022/10/11 06:23:29;;;;;;;17.77;11.63;;;11.60;99.90;;;;;;5109933;28;20608;-68
2022/10/11 06:25:57;;;;;;;16.43;11.00;;;11.70;99.90;;;;;;5108456;28;20284;-67
2022/10/11 06:28:25;;;;;;;15.33;10.37;;;11.80;99.90;;;;;;5108650;28;20637;-67
2022/10/11 06:30:53;;;;;;;16.67;10.63;;;12.00;99.90;;;;;;5110255;28;20638;-68
2022/10/11 06:33:20;;;;;;;14.70;9.97;;;12.10;99.90;;;;;;5107981;28;20203;-67
2022/10/11 06:35:47;;;;;;;15.70;11.57;;;12.20;99.90;;;;;;5110095;28;20302;-68
2022/10/11 06:38:13;;;;;;;15.47;10.70;;;12.30;99.90;;;;;;5105699;28;20231;-68
2022/10/11 06:40:40;;;;;;;16.50;10.57;;;12.40;99.90;;;;;;5093071;28;20578;-68
2022/10/11 06:43:07;;;;;;;16.60;10.97;;;12.50;99.90;;;;;;5099255;28;20719;-67
2022/10/11 06:45:34;;;;;;;18.77;11.13;;;12.60;99.90;;;;;;5104550;28;20204;-68
2022/10/11 06:48:04;;;;;;;16.27;10.97;;;12.80;99.90;;;;;;5107924;28;20211;-68
2022/10/11 06:50:31;;;;;;;15.87;10.90;;;12.90;99.90;;;;;;5108073;28;20277;-68
2022/10/11 06:52:58;;;;;;;15.80;11.20;;;13.10;99.90;;;;;;5104496;28;20207;-69
2022/10/11 06:55:25;;;;;;;18.57;11.40;;;13.30;99.90;;;;;;5107257;28;20648;-68
2022/10/11 06:57:52;;;;;;;15.67;10.40;;;13.40;99.90;;;;;;5104998;28;20222;-69
2022/10/11 07:00:18;;;;;;;15.83;10.93;;;13.60;99.90;;;;;;5109362;28;20212;-68
2022/10/11 07:02:47;;;;;;;13.13;10.60;;;13.70;99.90;;;;;;5108875;28;20648;-68
2022/10/11 07:05:15;;;;;;;16.83;11.07;;;13.90;99.90;;;;;;5109859;28;20204;-69
2022/10/11 07:07:42;;;;;;;13.17;10.10;;;14.10;99.90;;;;;;5110051;28;20602;-69
2022/10/11 07:10:09;;;;;;;17.63;10.70;;;14.20;99.90;;;;;;5109763;28;20666;-69
2022/10/11 07:12:36;;;;;;;15.43;10.07;;;14.20;99.90;;;;;;5109539;28;20358;-69
2022/10/11 07:15:03;;;;;;;14.17;10.73;;;14.30;99.90;;;;;;5106651;28;20580;-68
2022/10/11 07:17:30;;;;;;;14.20;10.53;;;14.20;99.90;;;;;;5110074;28;20197;-69
2022/10/11 07:19:57;;;;;;;21.07;11.13;;;14.30;99.90;;;;;;5105952;28;20240;-69
2022/10/11 07:22:25;;;;;;;20.53;10.20;;;14.30;99.90;;;;;;5109862;28;20270;-69
2022/10/11 07:24:52;;;;;;;12.87;9.93;;;14.30;99.90;;;;;;5109616;28;20208;-70
2022/10/11 07:27:19;;;;;;;15.83;10.07;;;14.30;99.90;;;;;;5108873;28;20236;-70
2022/10/11 07:29:45;;;;;;;16.00;10.27;;;14.20;99.90;;;;;;5110337;28;20196;-69
2022/10/11 07:32:12;;;;;;;13.03;10.70;;;14.30;99.90;;;;;;5108571;28;20208;-69
2022/10/11 07:34:39;;;;;;;17.63;11.73;;;14.40;99.90;;;;;;5108464;28;20200;-69
2022/10/11 07:37:06;;;;;;;13.73;10.57;;;14.50;99.90;;;;;;5112461;28;20215;-69
2022/10/11 07:39:34;;;;;;;18.53;10.37;;;14.70;99.90;;;;;;5113625;28;20227;-70
2022/10/11 07:42:01;;;;;;;13.47;9.73;;;14.80;99.90;;;;;;5110840;28;20210;-69
2022/10/11 07:44:28;;;;;;;14.00;9.67;;;14.90;99.90;;;;;;5109568;28;20669;-70
2022/10/11 07:46:54;;;;;;;19.07;10.43;;;15.00;99.90;;;;;;5099921;28;20204;-70
2022/10/11 07:49:21;;;;;;;12.63;10.17;;;15.10;99.90;;;;;;5104449;28;20200;-71
2022/10/11 07:51:48;;;;;;;14.57;10.13;;;15.20;99.90;;;;;;5108942;28;20207;-68
2022/10/11 07:54:15;;;;;;;13.73;8.90;;;15.20;99.90;;;;;;5103843;28;20204;-69
2022/10/11 07:56:43;;;;;;;12.57;9.00;;;15.30;99.90;;;;;;5111560;28;20582;-69
2022/10/11 07:59:11;;;;;;;17.83;13.10;;;15.40;99.90;;;;;;5113044;28;20238;-69
2022/10/11 08:01:37;;;;;;;13.53;8.97;;;15.50;99.90;;;;;;5111588;28;20199;-70
2022/10/11 08:04:05;;;;;;;13.67;9.63;;;15.50;99.90;;;;;;5103325;28;20208;-69
2022/10/11 08:06:31;;;;;;;12.20;8.77;;;15.50;99.90;;;;;;5111043;28;20692;-69
2022/10/11 08:09:00;;;;;;;11.40;8.90;;;15.40;99.90;;;;;;5108664;28;20200;-69
2022/10/11 08:11:29;;;;;;;13.90;9.57;;;15.40;99.90;;;;;;5112508;28;20253;-68
2022/10/11 08:13:58;;;;;;;8.47;7.57;;;15.30;99.90;;;;;;5113000;28;20641;-70
2022/10/11 08:16:25;;;;;;;9.57;7.83;;;15.20;99.90;;;;;;5112945;28;20293;-69
2022/10/11 08:18:54;;;;;;;12.70;8.70;;;15.10;99.90;;;;;;5112402;28;20235;-69
2022/10/11 08:21:20;;;;;;;10.27;7.40;;;15.00;99.90;;;;;;5105866;28;20212;-70
2022/10/11 08:23:47;;;;;;;9.73;8.07;;;14.90;99.90;;;;;;5111745;28;20223;-70
2022/10/11 08:26:14;;;;;;;12.27;8.73;;;14.80;99.90;;;;;;5108231;28;20235;-70
2022/10/11 08:28:41;;;;;;;12.53;8.63;;;14.80;99.90;;;;;;5109183;28;20204;-70
2022/10/11 08:31:12;;;;;;;12.17;7.90;;;14.80;99.90;;;;;;5111586;28;20204;-69
2022/10/11 08:33:39;;;;;;;10.87;8.83;;;14.90;99.90;;;;;;5111434;28;20226;-71
2022/10/11 08:36:07;;;;;;;11.90;8.30;;;15.00;99.90;;;;;;5103948;28;20216;-70
2022/10/11 08:38:35;;;;;;;14.90;8.50;;;15.00;99.90;;;;;;5103154;28;20242;-69
2022/10/11 08:41:02;;;;;;;12.40;8.90;;;15.00;99.90;;;;;;5101383;28;20640;-70
2022/10/11 08:43:44;;;;;;;15.20;8.60;;;15.00;99.90;;;;;;5102273;28;20664;-70
2022/10/11 08:46:15;;;;;;;11.33;7.70;;;15.30;99.90;;;;;;5099028;28;20196;-69
2022/10/11 08:48:44;;;;;;;11.17;7.60;;;15.60;99.90;;;;;;5103769;28;20215;-69
2022/10/11 08:51:18;;;;;;;10.00;7.10;;;15.90;99.90;;;;;;5099131;28;20217;-69
2022/10/11 08:53:49;;;;;;;12.43;8.10;;;16.20;99.90;;;;;;5098549;28;20212;-70
2022/10/11 08:56:17;;;;;;;11.18;8.15;;;16.30;99.90;;;;;;5103426;28;20212;-69
2022/10/11 08:58:49;;;;;;;8.75;7.18;;;16.30;99.90;;;;;;5109309;28;20616;-70
2022/10/11 09:01:22;;;;;;;9.23;6.70;;;16.70;99.90;;;;;;5107162;28;20219;-69
2022/10/11 09:03:50;;;;;;;12.25;6.75;;;17.20;99.90;;;;;;5107392;28;20203;-69
2022/10/11 09:06:40;;;;;;;13.00;7.43;;;18.30;99.90;;;;;;5110553;28;20204;-70
2022/10/11 09:09:22;;;;;;;10.45;6.43;;;19.40;99.90;;;;;;5110192;28;20200;-70
2022/10/11 09:12:01;;;;;;;8.25;6.07;;;20.10;99.90;;;;;;5105955;28;20204;-69
2022/10/11 09:14:44;;;;;;;7.53;5.72;;;20.20;99.90;;;;;;5102603;28;20560;-69
2022/10/11 09:17:20;;;;;;;6.93;5.80;;;19.90;99.90;;;;;;5108009;28;20656;-70
2022/10/11 09:20:21;;;;;;;8.38;5.70;;;19.30;99.90;;;;;;5108252;28;20591;-69
2022/10/11 09:22:58;;;;;;;7.38;5.38;;;18.80;99.90;;;;;;5088877;28;22120;-70
2022/10/11 09:25:29;;;;;;;7.53;5.55;;;18.30;99.90;;;;;;5100880;28;20243;-70
2022/10/11 09:28:16;;;;;;;6.32;5.72;;;18.00;99.90;;;;;;5108649;28;20204;-70
2022/10/11 09:30:49;;;;;;;7.78;5.97;;;17.80;99.90;;;;;;5108179;28;20579;-69
2022/10/11 09:33:21;;;;;;;9.38;5.88;;;17.60;99.90;;;;;;5096289;28;20204;-70
2022/10/11 09:35:50;;;;;;;7.30;6.10;;;17.30;99.90;;;;;;5100381;28;20471;-70
2022/10/11 09:38:27;;;;;;;8.95;5.82;;;17.30;99.90;;;;;;5104577;28;20204;-70
2022/10/11 09:41:05;;;;;;;8.35;5.68;;;17.10;99.90;;;;;;5106320;28;20684;-70
2022/10/11 09:43:32;;;;;;;9.68;5.45;;;17.00;99.90;;;;;;5104315;28;20214;-69
2022/10/11 09:45:59;;;;;;;8.70;6.50;;;17.10;99.90;;;;;;5108145;28;20218;-69
2022/10/11 09:48:33;;;;;;;6.97;5.55;;;17.00;99.90;;;;;;5107093;28;20212;-69
2022/10/11 09:51:05;;;;;;;8.30;5.30;;;17.00;99.90;;;;;;5106870;28;20750;-69
2022/10/11 09:53:53;;;;;;;16.65;6.00;;;17.00;99.90;;;;;;5109029;28;20199;-69
2022/10/11 09:56:20;;;;;;;8.98;5.65;;;17.10;99.90;;;;;;5107483;28;20220;-69
2022/10/11 09:58:47;;;;;;;7.32;5.13;;;17.40;99.90;;;;;;5109367;28;20222;-69
2022/10/11 10:01:23;;;;;;;8.32;5.32;;;18.00;99.90;;;;;;5110257;28;20208;-70
2022/10/11 10:04:06;;;;;;;8.43;3.78;;;18.10;99.90;;;;;;5109678;28;20211;-69
2022/10/11 10:06:33;;;;;;;8.75;4.03;;;18.10;99.90;;;;;;5108661;28;20303;-69
2022/10/11 10:09:24;;;;;;;4.88;3.97;;;18.10;99.90;;;;;;5103047;28;20821;-69
2022/10/11 10:11:51;;;;;;;5.18;3.00;;;18.00;99.90;;;;;;5107685;28;20196;-69
2022/10/11 10:14:25;;;;;;;5.70;3.30;;;20.80;99.90;;;;;;5111175;28;20203;-70
2022/10/11 10:17:03;;;;;;;5.05;2.88;;;24.70;95.80;;;;;;5102075;28;20597;-69
2022/10/11 10:19:40;;;;;;;3.67;2.75;;;28.30;84.50;;;;;;5103424;28;20230;-69
2022/10/11 10:22:16;;;;;;;5.40;2.58;;;31.90;60.50;;;;;;5106515;28;20285;-69
2022/10/11 10:24:43;;;;;;;3.25;2.30;;;35.30;47.90;;;;;;5098400;28;20678;-68
2022/10/11 10:27:20;;;;;;;2.83;1.90;;;37.80;41.40;;;;;;5108872;28;20236;-69
2022/10/11 10:30:02;;;;;;;6.43;2.00;;;39.60;37.00;;;;;;5102847;28;20591;-70
2022/10/11 10:32:34;;;;;;;3.20;2.00;;;38.70;33.40;;;;;;5109324;28;20203;-68
2022/10/11 10:35:09;;;;;;;2.85;1.83;;;36.40;35.00;;;;;;5110238;28;20207;-70
2022/10/11 10:37:41;;;;;;;3.45;1.80;;;35.20;38.80;;;;;;5110216;28;20207;-69
2022/10/11 10:40:13;;;;;;;4.63;1.80;;;36.50;37.10;;;;;;5105490;28;20226;-70
2022/10/11 10:42:40;;;;;;;3.03;1.88;;;38.50;34.90;;;;;;5109801;28;20207;-70
2022/10/11 10:45:14;;;;;;;2.47;1.95;;;40.70;33.00;;;;;;5108706;28;20203;-69
2022/10/11 10:47:54;;;;;;;5.65;2.10;;;42.50;30.80;;;;;;5107899;28;20221;-70
2022/10/11 10:50:27;;;;;;;4.47;2.13;;;44.00;28.90;;;;;;5108924;28;20387;-69
2022/10/11 10:53:05;;;;;;;2.85;1.90;;;45.10;28.00;;;;;;5110372;28;20686;-70
2022/10/11 10:55:38;;;;;;;2.42;1.70;;;45.10;27.20;;;;;;5107388;28;20207;-69
2022/10/11 10:58:15;;;;;;;3.20;2.13;;;45.30;26.80;;;;;;5109812;28;20275;-69
2022/10/11 11:00:45;;;;;;;3.60;1.40;;;45.70;26.10;;;;;;5107448;28;20207;-70
2022/10/11 11:03:21;;;;;;;3.10;1.45;;;45.50;26.10;;;;;;5110281;28;20213;-70
2022/10/11 11:05:57;;;;;;;3.90;1.63;;;46.10;26.20;;;;;;5106480;28;20277;-69
2022/10/11 11:08:51;;;;;;;3.40;1.80;;;47.00;25.40;;;;;;5110776;28;20195;-69
2022/10/11 11:11:35;;;;;;;5.50;1.90;;;47.60;24.90;;;;;;5103532;28;20206;-69
2022/10/11 11:14:11;;;;;;;3.17;1.92;;;48.70;24.30;;;;;;5107263;28;20199;-70
2022/10/11 11:16:44;;;;;;;1.50;1.40;;;49.40;23.80;;;;;;5110797;28;20203;-69
2022/10/11 11:19:24;;;;;;;4.47;1.80;;;49.70;23.10;;;;;;5114926;28;20211;-69
2022/10/11 11:21:58;;;;;;;2.30;1.15;;;48.20;23.20;;;;;;5112330;28;20684;-69
2022/10/11 11:24:39;;;;;;;2.60;1.70;;;47.00;24.20;;;;;;5114326;28;20568;-71
2022/10/11 11:27:12;;;;;;;3.92;1.77;;;47.20;23.70;;;;;;5111028;28;20243;-69
2022/10/11 11:29:48;;;;;;;1.83;1.40;;;48.00;23.10;;;;;;5096450;28;20203;-70
2022/10/11 11:32:25;;;;;;;2.22;1.23;;;48.40;22.50;;;;;;5114123;28;20210;-68
2022/10/11 11:35:00;;;;;;;2.85;1.50;;;46.10;22.80;;;;;;5108032;28;20210;-68
2022/10/11 11:37:32;;;;;;;2.60;1.48;;;43.70;23.40;;;;;;5113330;28;20225;-69
2022/10/11 11:40:05;;;;;;;2.58;1.30;;;40.90;24.70;;;;;;5115735;28;20211;-69
2022/10/11 11:42:38;;;;;;;3.42;1.65;;;38.60;26.50;;;;;;5112872;28;20671;-70
2022/10/11 11:45:15;;;;;;;2.70;1.40;;;38.30;28.40;;;;;;5110204;28;20697;-69
2022/10/11 11:47:46;;;;;;;1.98;1.30;;;40.20;27.10;;;;;;5114304;28;20241;-72
2022/10/11 11:50:21;;;;;;;3.10;1.55;;;42.60;25.40;;;;;;5113775;28;20195;-70
2022/10/11 11:52:53;;;;;;;2.00;1.38;;;44.40;24.30;;;;;;5108278;28;20256;-72
2022/10/11 11:55:27;;;;;;;3.22;1.65;;;46.10;23.60;;;;;;5114503;28;20221;-72
2022/10/11 11:58:04;;;;;;;1.80;1.30;;;47.60;22.90;;;;;;5114029;28;20256;-71
2022/10/11 12:00:38;;;;;;;1.67;1.30;;;47.80;21.90;;;;;;5114300;28;20207;-70
2022/10/11 12:03:11;;;;;;;2.80;1.27;;;46.80;22.60;;;;;;5113849;28;20654;-76
2022/10/11 12:05:38;;;;;;;2.22;1.55;;;44.90;22.80;;;;;;5113482;28;20211;-71
2022/10/11 12:08:08;;;;;;;2.17;1.27;;;42.40;24.10;;;;;;5113535;28;20211;-69
2022/10/11 12:10:38;;;;;;;5.45;3.88;;;40.60;24.60;;;;;;5112445;28;20687;-70
2022/10/11 12:13:20;;;;;;;2.70;1.60;;;39.10;26.10;;;;;;5113777;28;20238;-70
2022/10/11 12:16:09;;;;;;;3.03;1.50;;;37.60;26.00;;;;;;5113680;28;20214;-71
2022/10/11 12:18:48;;;;;;;5.03;1.67;;;35.30;27.40;;;;;;5108060;28;20293;-69
2022/10/11 12:21:22;;;;;;;2.80;1.23;;;34.90;30.10;;;;;;5108952;28;20302;-69
2022/10/11 12:23:51;;;;;;;4.13;1.60;;;36.80;28.70;;;;;;5113118;28;20592;-70
2022/10/11 12:26:36;;;;;;;3.42;1.40;;;39.40;27.10;;;;;;5098965;28;20227;-71
2022/10/11 12:29:42;;;;;;;3.00;1.38;;;41.90;25.60;;;;;;5114150;28;20203;-70
2022/10/11 12:32:49;;;;;;;3.58;1.90;;;44.30;24.80;;;;;;5113689;28;20605;-70
2022/10/11 12:36:00;;;;;;;3.50;1.20;;;44.80;23.60;;;;;;5101302;28;20207;-71
2022/10/11 12:38:29;;;;;;;3.95;1.88;;;43.10;24.00;;;;;;5066677;28;20211;-69
2022/10/11 12:41:00;;;;;;;3.13;1.33;;;41.60;24.20;;;;;;5112096;28;20241;-70
2022/10/11 12:43:35;;;;;;;2.75;1.83;;;39.60;25.50;;;;;;5112909;28;20200;-71
2022/10/11 12:46:33;;;;;;;3.20;1.65;;;37.40;26.50;;;;;;5107032;28;20219;-70
2022/10/11 12:49:10;;;;;;;3.08;1.35;;;34.90;28.00;;;;;;5112323;28;20231;-70
2022/10/11 12:51:50;;;;;;;3.25;1.35;;;33.00;29.50;;;;;;5113128;28;20204;-69
2022/10/11 12:54:53;;;;;;;4.63;1.30;;;32.00;31.10;;;;;;5112880;28;20660;-70
2022/10/11 12:57:45;;;;;;;3.55;1.77;;;32.20;31.20;;;;;;5072201;28;20210;-69
2022/10/11 13:00:19;;;;;;;1.73;1.13;;;31.80;30.10;;;;;;5112187;28;20238;-69